Time;durP1;ratioP1;P1;durP2;ratioP2;P2;SDS_P1;SDS_P2;PMS_P1;PMS_P2;Temp;Humidity;BMP_temperature;BMP_pressure;BME280_temperature;BME280_humidity;BME280_pressure;Samples;Min_cycle;Max_cycle;Signal;HPM_P1;HPM_P2
2023/11/27 00:00:16;;;;;;;8.13;4.93;;;1.80;99.90;;;;;;6243440;23;20380;-58
2023/11/27 00:02:43;;;;;;;10.70;6.67;;;1.80;99.90;;;;;;6243977;23;20399;-61
2023/11/27 00:05:10;;;;;;;8.57;5.43;;;1.80;99.90;;;;;;6242881;23;20423;-60
2023/11/27 00:07:37;;;;;;;10.80;5.50;;;1.80;99.90;;;;;;6243331;23;20415;-60
2023/11/27 00:10:04;;;;;;;11.73;5.43;;;1.90;99.90;;;;;;6242712;23;20431;-60
2023/11/27 00:12:31;;;;;;;13.20;6.37;;;1.90;99.90;;;;;;6242833;23;20424;-63
2023/11/27 00:15:01;;;;;;;8.00;4.80;;;1.80;99.90;;;;;;6242879;23;20427;-61
2023/11/27 00:17:28;;;;;;;7.03;4.97;;;1.80;99.90;;;;;;6243421;23;20376;-58
2023/11/27 00:19:55;;;;;;;11.33;5.13;;;1.80;99.90;;;;;;6243727;23;20435;-60
2023/11/27 00:22:23;;;;;;;11.30;5.50;;;1.80;99.90;;;;;;6243231;23;20396;-62
2023/11/27 00:24:50;;;;;;;7.90;4.73;;;1.90;99.90;;;;;;6242662;23;20427;-59
2023/11/27 00:27:17;;;;;;;11.20;6.80;;;1.90;99.90;;;;;;6242996;23;20404;-63
2023/11/27 00:29:45;;;;;;;11.50;7.20;;;1.90;99.90;;;;;;6243578;23;20435;-63
2023/11/27 00:32:13;;;;;;;17.40;5.03;;;1.90;99.90;;;;;;6243305;23;20439;-63
2023/11/27 00:34:41;;;;;;;9.37;5.73;;;1.90;99.90;;;;;;6243336;23;20428;-60
2023/11/27 00:37:08;;;;;;;15.27;6.00;;;1.90;99.90;;;;;;6242440;23;20416;-63
2023/11/27 00:39:34;;;;;;;9.77;5.50;;;1.90;99.90;;;;;;6242625;23;20479;-60
2023/11/27 00:42:01;;;;;;;8.60;4.70;;;1.90;99.90;;;;;;6242483;23;20395;-60
2023/11/27 00:44:28;;;;;;;12.07;5.03;;;1.90;99.90;;;;;;6242028;23;20404;-58
2023/11/27 00:46:55;;;;;;;14.37;5.33;;;1.90;99.90;;;;;;6241845;23;20391;-61
2023/11/27 00:49:23;;;;;;;7.70;4.87;;;2.00;99.90;;;;;;6241164;23;20404;-57
2023/11/27 00:51:50;;;;;;;9.30;4.77;;;2.00;99.90;;;;;;6241508;23;20439;-61
2023/11/27 00:54:17;;;;;;;6.30;4.10;;;2.00;99.90;;;;;;6241200;23;20435;-63
2023/11/27 00:56:44;;;;;;;9.30;5.27;;;2.00;99.90;;;;;;6241123;23;20407;-61
2023/11/27 00:59:11;;;;;;;7.93;6.37;;;2.00;99.90;;;;;;6241861;23;20388;-61
2023/11/27 01:01:38;;;;;;;8.03;5.10;;;2.00;99.90;;;;;;6242307;23;20387;-61
2023/11/27 01:04:05;;;;;;;14.93;5.50;;;2.00;99.90;;;;;;6244397;23;20395;-58
2023/11/27 01:06:33;;;;;;;9.43;5.77;;;2.00;99.90;;;;;;6244108;23;20428;-59
2023/11/27 01:09:00;;;;;;;7.30;4.27;;;2.00;99.90;;;;;;6243646;23;20392;-61
2023/11/27 01:11:27;;;;;;;10.40;6.10;;;2.10;99.90;;;;;;6242558;23;20431;-59
2023/11/27 01:13:54;;;;;;;9.10;5.23;;;2.10;99.90;;;;;;6241756;23;20415;-62
2023/11/27 01:16:22;;;;;;;6.23;4.27;;;2.20;99.90;;;;;;6241718;23;20439;-61
2023/11/27 01:18:49;;;;;;;6.53;5.20;;;2.10;99.90;;;;;;6241772;23;20432;-62
2023/11/27 01:21:16;;;;;;;5.33;3.20;;;2.20;99.90;;;;;;6241281;23;20419;-61
2023/11/27 01:23:44;;;;;;;6.50;4.33;;;2.20;99.90;;;;;;6241854;23;20403;-61
2023/11/27 01:26:11;;;;;;;7.17;4.23;;;2.30;99.90;;;;;;6241109;23;20424;-58
2023/11/27 01:28:38;;;;;;;6.63;4.63;;;2.20;99.90;;;;;;6241498;23;20419;-61
2023/11/27 01:31:05;;;;;;;5.80;4.20;;;2.20;99.90;;;;;;6241193;23;20451;-62
2023/11/27 01:33:32;;;;;;;6.20;4.17;;;2.20;99.90;;;;;;6241669;23;20849;-62
2023/11/27 01:36:04;;;;;;;8.87;5.00;;;2.30;99.90;;;;;;6241278;23;20458;-59
2023/11/27 01:38:31;;;;;;;17.43;4.30;;;2.20;99.90;;;;;;6241222;23;20411;-62
2023/11/27 01:40:59;;;;;;;12.37;6.00;;;2.20;99.90;;;;;;6240813;23;20443;-62
2023/11/27 01:43:26;;;;;;;6.47;4.73;;;2.20;99.90;;;;;;6240896;23;20404;-61
2023/11/27 01:46:19;;;;;;;8.63;5.50;;;2.20;99.90;;;;;;6240837;23;20420;-64
2023/11/27 01:48:46;;;;;;;13.80;5.30;;;2.20;99.90;;;;;;6241273;23;20488;-61
2023/11/27 01:51:13;;;;;;;10.00;5.47;;;2.20;99.90;;;;;;6241056;23;20478;-62
2023/11/27 01:53:40;;;;;;;12.87;7.23;;;2.20;99.90;;;;;;6241259;23;20404;-62
2023/11/27 01:56:09;;;;;;;8.80;5.77;;;2.20;99.90;;;;;;6241039;23;20434;-62
2023/11/27 01:58:36;;;;;;;8.43;4.90;;;2.20;99.90;;;;;;6240702;23;20399;-61
2023/11/27 02:01:03;;;;;;;11.23;4.97;;;2.20;99.90;;;;;;6240674;23;20428;-60
2023/11/27 02:03:31;;;;;;;10.30;5.43;;;2.20;99.90;;;;;;6241648;23;20418;-61
2023/11/27 02:05:58;;;;;;;7.90;5.57;;;2.20;99.90;;;;;;6241210;23;20430;-57
2023/11/27 02:08:25;;;;;;;7.37;5.30;;;2.20;99.90;;;;;;6241201;23;20391;-61
2023/11/27 02:10:52;;;;;;;17.87;6.37;;;2.20;99.90;;;;;;6242287;23;20419;-61
2023/11/27 02:13:21;;;;;;;9.30;6.07;;;2.20;99.90;;;;;;6242411;23;20431;-61
2023/11/27 02:15:48;;;;;;;8.00;5.43;;;2.20;99.90;;;;;;6241473;23;20475;-61
2023/11/27 02:18:15;;;;;;;8.73;5.80;;;2.30;99.90;;;;;;6241055;23;20413;-64
2023/11/27 02:20:44;;;;;;;11.93;6.57;;;2.30;99.90;;;;;;6240837;23;20400;-62
2023/11/27 02:23:17;;;;;;;6.20;4.50;;;2.30;99.90;;;;;;6240722;23;20515;-61
2023/11/27 02:25:44;;;;;;;7.40;4.80;;;2.30;99.90;;;;;;6240899;23;20395;-61
2023/11/27 02:28:11;;;;;;;8.80;5.00;;;2.30;99.90;;;;;;6240868;23;20415;-59
2023/11/27 02:30:38;;;;;;;10.13;4.50;;;2.30;99.90;;;;;;6240605;23;20427;-60
2023/11/27 02:33:06;;;;;;;6.10;5.37;;;2.20;99.90;;;;;;6240337;23;20447;-61
2023/11/27 02:35:33;;;;;;;7.57;5.23;;;2.30;99.90;;;;;;6240803;23;20400;-60
2023/11/27 02:38:01;;;;;;;8.10;4.57;;;2.20;99.90;;;;;;6239585;23;20407;-62
2023/11/27 02:40:30;;;;;;;4.90;3.87;;;2.20;99.90;;;;;;6240102;23;20411;-61
2023/11/27 02:42:57;;;;;;;7.73;5.20;;;2.20;99.90;;;;;;6240034;23;20483;-61
2023/11/27 02:45:24;;;;;;;7.53;5.00;;;2.20;99.90;;;;;;6239722;23;20407;-62
2023/11/27 02:47:52;;;;;;;10.13;5.90;;;2.30;99.90;;;;;;6240165;23;20443;-62
2023/11/27 02:50:18;;;;;;;8.33;5.00;;;2.20;99.90;;;;;;6239981;23;20476;-59
2023/11/27 02:52:46;;;;;;;7.50;5.00;;;2.20;99.90;;;;;;6239509;23;20512;-62
2023/11/27 02:55:13;;;;;;;9.13;5.10;;;2.20;99.90;;;;;;6240377;23;20407;-62
2023/11/27 02:57:43;;;;;;;8.57;4.93;;;2.20;99.90;;;;;;6239660;23;20428;-61
2023/11/27 03:00:12;;;;;;;6.77;5.00;;;2.20;99.90;;;;;;6240332;23;20389;-61
2023/11/27 03:02:39;;;;;;;7.10;4.53;;;2.20;99.90;;;;;;6239857;23;20458;-61
2023/11/27 03:05:08;;;;;;;9.43;5.73;;;2.20;99.90;;;;;;6240143;23;20404;-60
2023/11/27 03:07:35;;;;;;;5.37;4.23;;;2.20;99.90;;;;;;6240094;23;20428;-61
2023/11/27 03:10:02;;;;;;;6.83;5.17;;;2.20;99.90;;;;;;6239307;23;20415;-63
2023/11/27 03:12:29;;;;;;;11.00;5.10;;;2.20;99.90;;;;;;6239479;23;20456;-63
2023/11/27 03:14:57;;;;;;;8.60;4.73;;;2.20;99.90;;;;;;6239775;23;20404;-61
2023/11/27 03:17:25;;;;;;;8.93;4.70;;;2.20;99.90;;;;;;6239895;23;20416;-62
2023/11/27 03:19:52;;;;;;;12.20;6.63;;;2.20;99.90;;;;;;6239966;23;20408;-62
2023/11/27 03:22:19;;;;;;;8.80;5.40;;;2.20;99.90;;;;;;6239623;23;20451;-61
2023/11/27 03:24:45;;;;;;;9.13;5.20;;;2.10;99.90;;;;;;6240030;23;20443;-63
2023/11/27 03:27:12;;;;;;;11.10;4.87;;;2.10;99.90;;;;;;6240289;23;20463;-62
2023/11/27 03:29:39;;;;;;;10.20;5.87;;;2.10;99.90;;;;;;6240032;23;20368;-63
2023/11/27 03:32:07;;;;;;;8.57;5.47;;;2.10;99.90;;;;;;6239383;23;20440;-61
2023/11/27 03:34:34;;;;;;;8.90;6.47;;;2.10;99.90;;;;;;6240105;23;20391;-62
2023/11/27 03:37:01;;;;;;;8.53;5.50;;;2.10;99.90;;;;;;6239455;23;20427;-62
2023/11/27 03:39:31;;;;;;;8.63;6.63;;;2.20;99.90;;;;;;6240063;23;20400;-61
2023/11/27 03:42:01;;;;;;;10.07;6.00;;;2.20;99.90;;;;;;6240020;23;20407;-63
2023/11/27 03:44:28;;;;;;;15.47;5.80;;;2.20;99.90;;;;;;6240144;23;20479;-59
2023/11/27 03:46:58;;;;;;;9.33;5.23;;;2.20;99.90;;;;;;6239973;23;20472;-62
2023/11/27 03:49:26;;;;;;;8.83;5.00;;;2.10;99.90;;;;;;6240040;23;20380;-61
2023/11/27 03:51:53;;;;;;;11.03;5.30;;;2.10;99.90;;;;;;6239581;23;20443;-60
2023/11/27 03:54:20;;;;;;;10.33;5.63;;;2.10;99.90;;;;;;6239884;23;20404;-63
2023/11/27 03:56:47;;;;;;;10.27;5.73;;;2.10;99.90;;;;;;6239789;23;20392;-62
2023/11/27 03:59:13;;;;;;;9.30;5.93;;;2.00;99.90;;;;;;6239501;23;20455;-62
2023/11/27 04:01:40;;;;;;;11.17;5.80;;;2.10;99.90;;;;;;6240081;23;20404;-60
2023/11/27 04:04:12;;;;;;;11.07;6.00;;;2.10;99.90;;;;;;6239632;23;20458;-60
2023/11/27 04:06:44;;;;;;;11.23;6.50;;;2.10;99.90;;;;;;6239431;23;20443;-61
2023/11/27 04:09:13;;;;;;;10.33;5.70;;;2.10;99.90;;;;;;6239988;23;20476;-61
2023/11/27 04:11:40;;;;;;;7.70;5.33;;;2.10;99.90;;;;;;6239762;23;20415;-61
2023/11/27 04:14:07;;;;;;;8.00;4.97;;;2.10;99.90;;;;;;6239125;23;20416;-60
2023/11/27 04:16:33;;;;;;;8.03;5.27;;;2.10;99.90;;;;;;6240057;23;20499;-62
2023/11/27 04:19:02;;;;;;;13.73;7.17;;;2.10;99.90;;;;;;6240603;23;20427;-61
2023/11/27 04:21:29;;;;;;;7.57;5.87;;;2.10;99.90;;;;;;6241330;23;20404;-60
2023/11/27 04:23:57;;;;;;;10.67;5.47;;;2.10;99.90;;;;;;6241339;23;20428;-58
2023/11/27 04:26:24;;;;;;;11.10;4.90;;;2.10;99.90;;;;;;6242075;23;20388;-61
2023/11/27 04:28:53;;;;;;;9.47;5.70;;;2.10;99.90;;;;;;6242380;23;20416;-58
2023/11/27 04:31:20;;;;;;;11.07;5.60;;;2.10;99.90;;;;;;6243341;23;20407;-60
2023/11/27 04:33:45;;;;;;;11.33;6.00;;;2.10;99.90;;;;;;6244275;23;20451;-58
2023/11/27 04:36:19;;;;;;;7.17;5.67;;;2.10;99.90;;;;;;6243317;23;20416;-60
2023/11/27 04:38:51;;;;;;;8.37;4.57;;;2.10;99.90;;;;;;6242585;23;20443;-60
2023/11/27 04:41:20;;;;;;;7.07;4.40;;;2.10;99.90;;;;;;6243165;23;20372;-61
2023/11/27 04:43:47;;;;;;;5.50;4.10;;;2.00;99.90;;;;;;6243200;23;20495;-58
2023/11/27 04:46:16;;;;;;;8.70;6.07;;;2.00;99.90;;;;;;6242838;23;20400;-61
2023/11/27 04:48:43;;;;;;;7.97;5.40;;;2.00;99.90;;;;;;6242669;23;20428;-61
2023/11/27 04:51:10;;;;;;;6.93;4.63;;;2.00;99.90;;;;;;6242297;23;20384;-59
2023/11/27 04:53:38;;;;;;;5.83;3.60;;;2.10;99.90;;;;;;6240798;23;20440;-61
2023/11/27 04:56:06;;;;;;;8.90;4.53;;;2.10;99.90;;;;;;6241298;23;20395;-63
2023/11/27 04:58:34;;;;;;;8.03;4.30;;;2.10;99.90;;;;;;6240797;23;20412;-62
2023/11/27 05:01:03;;;;;;;5.70;4.50;;;2.10;99.90;;;;;;6241088;23;20389;-59
2023/11/27 05:03:30;;;;;;;9.17;5.67;;;2.00;99.90;;;;;;6241066;23;20400;-62
2023/11/27 05:05:58;;;;;;;7.77;4.83;;;2.00;99.90;;;;;;6241809;23;20411;-60
2023/11/27 05:08:25;;;;;;;7.50;5.07;;;2.10;99.90;;;;;;6241426;23;20414;-60
2023/11/27 05:10:55;;;;;;;8.77;5.87;;;2.10;99.90;;;;;;6240924;23;20404;-62
2023/11/27 05:13:22;;;;;;;9.00;6.07;;;2.10;99.90;;;;;;6240565;23;20487;-62
2023/11/27 05:15:50;;;;;;;5.23;4.23;;;2.10;99.90;;;;;;6240932;23;20404;-62
2023/11/27 05:18:17;;;;;;;11.40;6.33;;;2.10;99.90;;;;;;6240537;23;20404;-60
2023/11/27 05:20:43;;;;;;;9.30;5.70;;;2.10;99.90;;;;;;6240522;23;20400;-61
2023/11/27 05:23:13;;;;;;;6.40;5.43;;;2.00;99.90;;;;;;6240799;23;20404;-62
2023/11/27 05:25:40;;;;;;;8.53;5.30;;;2.10;99.90;;;;;;6240691;23;20419;-61
2023/11/27 05:28:07;;;;;;;11.60;5.63;;;2.10;99.90;;;;;;6240988;23;20435;-62
2023/11/27 05:30:34;;;;;;;6.47;4.53;;;2.10;99.90;;;;;;6240532;23;20432;-61
2023/11/27 05:33:03;;;;;;;10.80;5.23;;;2.10;99.90;;;;;;6240980;23;20463;-61
2023/11/27 05:35:30;;;;;;;6.20;4.50;;;2.10;99.90;;;;;;6240209;23;20479;-60
2023/11/27 05:37:57;;;;;;;9.50;5.40;;;2.10;99.90;;;;;;6239819;23;20408;-62
2023/11/27 05:40:25;;;;;;;5.80;4.80;;;2.10;99.90;;;;;;6240621;23;20428;-62
2023/11/27 05:42:51;;;;;;;11.60;5.03;;;2.10;99.90;;;;;;6240214;23;20434;-61
2023/11/27 05:45:18;;;;;;;7.40;5.87;;;2.20;99.90;;;;;;6240564;23;20420;-59
2023/11/27 05:47:45;;;;;;;5.77;4.47;;;2.10;99.90;;;;;;6240606;23;20419;-59
2023/11/27 05:50:18;;;;;;;8.33;4.93;;;2.10;99.90;;;;;;6240653;23;20436;-62
2023/11/27 05:52:48;;;;;;;10.67;6.43;;;2.10;99.90;;;;;;6240132;23;20428;-61
2023/11/27 05:55:18;;;;;;;5.93;4.90;;;2.10;99.90;;;;;;6240280;23;20424;-60
2023/11/27 05:57:45;;;;;;;11.10;5.57;;;2.10;99.90;;;;;;6240879;23;20411;-61
2023/11/27 06:00:13;;;;;;;11.63;5.90;;;2.00;99.90;;;;;;6240246;23;20424;-61
2023/11/27 06:02:41;;;;;;;13.67;5.70;;;2.10;99.90;;;;;;6240261;23;20410;-60
2023/11/27 06:05:08;;;;;;;8.90;4.70;;;2.10;99.90;;;;;;6240876;23;20467;-62
2023/11/27 06:07:38;;;;;;;10.80;5.83;;;2.10;99.90;;;;;;6240235;23;20384;-58
2023/11/27 06:10:07;;;;;;;8.57;5.70;;;2.10;99.90;;;;;;6240175;23;20424;-62
2023/11/27 06:12:36;;;;;;;8.83;6.50;;;2.10;99.90;;;;;;6240421;23;20432;-63
2023/11/27 06:15:05;;;;;;;7.17;4.47;;;2.90;99.90;;;;;;6240241;23;20408;-61
2023/11/27 06:17:32;;;;;;;10.30;5.80;;;2.10;99.90;;;;;;6239862;23;20410;-63
2023/11/27 06:19:58;;;;;;;16.03;5.33;;;2.10;99.90;;;;;;6240110;23;20404;-59
2023/11/27 06:22:26;;;;;;;10.10;5.93;;;2.10;99.90;;;;;;6240251;23;20371;-60
2023/11/27 06:24:57;;;;;;;11.33;5.10;;;2.20;99.90;;;;;;6240678;23;20480;-60
2023/11/27 06:27:24;;;;;;;8.83;6.07;;;2.20;99.90;;;;;;6240886;23;20384;-60
2023/11/27 06:29:54;;;;;;;5.83;3.60;;;2.20;99.90;;;;;;6240054;23;20403;-62
2023/11/27 06:32:22;;;;;;;7.90;4.70;;;2.20;99.90;;;;;;6240148;23;20404;-62
2023/11/27 06:34:49;;;;;;;4.90;4.10;;;2.20;99.90;;;;;;6240246;23;20415;-62
2023/11/27 06:37:16;;;;;;;10.63;4.87;;;2.20;99.90;;;;;;6239567;23;20419;-60
2023/11/27 06:39:43;;;;;;;8.57;4.50;;;2.20;99.90;;;;;;6239738;23;20399;-60
2023/11/27 06:42:12;;;;;;;6.93;4.30;;;2.20;99.90;;;;;;6239981;23;20404;-62
2023/11/27 06:44:39;;;;;;;7.53;4.17;;;2.20;99.90;;;;;;6240249;23;20415;-61
2023/11/27 06:47:06;;;;;;;10.20;4.20;;;2.10;99.90;;;;;;6239938;23;20504;-62
2023/11/27 06:49:33;;;;;;;7.50;4.93;;;2.20;99.90;;;;;;6240373;23;20403;-62
2023/11/27 06:52:01;;;;;;;8.20;5.50;;;2.20;99.90;;;;;;6240111;23;20428;-58
2023/11/27 06:54:28;;;;;;;7.97;5.07;;;2.30;99.90;;;;;;6239534;23;20439;-62
2023/11/27 06:56:54;;;;;;;6.07;4.13;;;2.30;99.90;;;;;;6240353;23;20428;-61
2023/11/27 06:59:23;;;;;;;5.23;4.10;;;2.40;99.90;;;;;;6239773;23;20388;-60
2023/11/27 07:01:50;;;;;;;8.33;4.17;;;2.40;99.90;;;;;;6239981;23;20423;-62
2023/11/27 07:04:17;;;;;;;7.30;3.37;;;2.40;99.90;;;;;;6240095;23;20404;-62
2023/11/27 07:06:44;;;;;;;10.63;4.80;;;2.50;99.90;;;;;;6239435;23;20507;-61
2023/11/27 07:09:11;;;;;;;7.63;3.90;;;2.50;99.90;;;;;;6240595;23;20435;-61
2023/11/27 07:11:38;;;;;;;12.30;4.57;;;2.50;99.90;;;;;;6239979;23;20443;-61
2023/11/27 07:14:06;;;;;;;7.13;4.80;;;2.40;99.90;;;;;;6239976;23;20427;-61
2023/11/27 07:16:37;;;;;;;4.30;3.90;;;2.40;99.90;;;;;;6239830;23;20432;-60
2023/11/27 07:19:06;;;;;;;7.17;4.77;;;2.40;99.90;;;;;;6239795;23;20440;-62
2023/11/27 07:21:33;;;;;;;8.67;4.93;;;2.50;99.90;;;;;;6239729;23;20439;-62
2023/11/27 07:24:00;;;;;;;9.77;5.10;;;2.50;99.90;;;;;;6239922;23;20408;-56
2023/11/27 07:26:27;;;;;;;12.23;5.40;;;2.60;99.90;;;;;;6239918;23;20428;-62
2023/11/27 07:28:57;;;;;;;10.80;6.13;;;2.60;99.90;;;;;;6240425;23;20400;-61
2023/11/27 07:31:27;;;;;;;4.70;3.83;;;2.60;99.90;;;;;;6239653;23;20439;-63
2023/11/27 07:33:55;;;;;;;8.83;3.50;;;2.60;99.90;;;;;;6239707;23;20435;-62
2023/11/27 07:36:22;;;;;;;6.57;4.33;;;2.70;99.90;;;;;;6240008;23;20407;-62
2023/11/27 07:38:49;;;;;;;4.63;4.13;;;2.60;99.90;;;;;;6240416;23;20392;-62
2023/11/27 07:41:19;;;;;;;7.63;4.00;;;2.70;99.90;;;;;;6240494;23;20419;-62
2023/11/27 07:43:47;;;;;;;6.33;4.40;;;2.70;99.90;;;;;;6240540;23;20385;-61
2023/11/27 07:46:14;;;;;;;10.50;4.83;;;2.60;99.90;;;;;;6241350;23;20495;-60
2023/11/27 07:48:42;;;;;;;5.23;3.13;;;2.60;99.90;;;;;;6241242;23;20411;-60
2023/11/27 07:51:10;;;;;;;6.10;3.53;;;2.70;99.90;;;;;;6240849;23;20388;-57
2023/11/27 07:53:37;;;;;;;5.97;4.53;;;2.70;99.90;;;;;;6240846;23;20436;-61
2023/11/27 07:56:05;;;;;;;5.10;4.07;;;2.70;99.90;;;;;;6241129;23;20437;-62
2023/11/27 07:58:32;;;;;;;6.03;3.40;;;2.70;99.90;;;;;;6239838;23;20414;-61
2023/11/27 08:01:00;;;;;;;6.40;4.13;;;2.70;99.90;;;;;;6240022;23;20419;-60
2023/11/27 08:03:29;;;;;;;8.33;4.07;;;2.70;99.90;;;;;;6240234;23;20415;-61
2023/11/27 08:05:56;;;;;;;4.87;3.70;;;2.80;99.90;;;;;;6240321;23;20392;-62
2023/11/27 08:08:24;;;;;;;5.90;3.70;;;2.70;99.90;;;;;;6242747;23;20458;-58
2023/11/27 08:10:51;;;;;;;6.37;3.73;;;2.80;99.90;;;;;;6242254;23;20415;-63
2023/11/27 08:13:18;;;;;;;7.67;4.20;;;2.80;99.90;;;;;;6242437;23;20435;-62
2023/11/27 08:15:45;;;;;;;5.00;4.03;;;2.90;99.90;;;;;;6241660;23;20434;-59
2023/11/27 08:18:15;;;;;;;8.47;4.03;;;2.90;99.90;;;;;;6242209;23;20423;-58
2023/11/27 08:20:43;;;;;;;7.83;4.93;;;3.00;99.90;;;;;;6242181;23;20392;-62
2023/11/27 08:23:10;;;;;;;5.53;4.40;;;2.90;99.90;;;;;;6242463;23;20428;-61
2023/11/27 08:25:43;;;;;;;8.93;3.80;;;3.00;99.90;;;;;;6242372;23;20407;-58
2023/11/27 08:28:10;;;;;;;5.87;3.70;;;3.00;99.90;;;;;;6241805;23;20491;-61
2023/11/27 08:30:41;;;;;;;11.50;5.77;;;3.00;99.90;;;;;;6241934;23;20693;-59
2023/11/27 08:33:08;;;;;;;12.70;5.90;;;3.10;99.90;;;;;;6242547;23;20432;-63
2023/11/27 08:35:36;;;;;;;6.00;3.63;;;3.00;99.90;;;;;;6243575;23;20404;-62
2023/11/27 08:38:04;;;;;;;11.03;4.57;;;3.10;99.90;;;;;;6242864;23;20511;-62
2023/11/27 08:40:31;;;;;;;5.60;4.40;;;3.10;99.90;;;;;;6242670;23;20433;-63
2023/11/27 08:43:00;;;;;;;8.27;4.63;;;3.10;99.90;;;;;;6242412;23;20462;-62
2023/11/27 08:45:27;;;;;;;5.90;4.10;;;3.10;99.90;;;;;;6241836;23;20419;-62
2023/11/27 08:47:55;;;;;;;8.00;3.40;;;3.10;99.90;;;;;;6242520;23;20408;-61
2023/11/27 08:50:27;;;;;;;11.23;5.27;;;3.10;99.90;;;;;;6242413;23;20388;-61
2023/11/27 08:52:56;;;;;;;7.10;3.90;;;3.30;99.90;;;;;;6242083;23;20463;-62
2023/11/27 08:55:28;;;;;;;7.77;3.67;;;3.10;99.90;;;;;;6243095;23;20401;-64
2023/11/27 08:57:55;;;;;;;6.87;4.23;;;3.20;99.90;;;;;;6243170;23;20423;-60
2023/11/27 09:00:28;;;;;;;8.93;4.27;;;3.20;99.90;;;;;;6243190;23;20448;-62
2023/11/27 09:02:55;;;;;;;8.73;5.10;;;3.20;99.90;;;;;;6242988;23;20392;-61
2023/11/27 09:05:24;;;;;;;13.67;4.03;;;3.10;99.90;;;;;;6243348;23;20371;-59
2023/11/27 09:07:53;;;;;;;8.23;4.50;;;3.20;99.90;;;;;;6243339;23;20408;-56
2023/11/27 09:10:20;;;;;;;8.13;4.40;;;3.20;99.90;;;;;;6242659;23;20388;-60
2023/11/27 09:12:47;;;;;;;5.80;3.47;;;3.20;99.90;;;;;;6243239;23;20404;-59
2023/11/27 09:15:14;;;;;;;6.80;3.80;;;3.20;99.90;;;;;;6242760;23;20444;-60
2023/11/27 09:17:42;;;;;;;6.70;3.60;;;3.30;99.90;;;;;;6241985;23;20404;-59
2023/11/27 09:20:10;;;;;;;10.47;4.20;;;3.30;99.90;;;;;;6241628;23;20415;-56
2023/11/27 09:22:37;;;;;;;14.03;5.10;;;3.30;99.90;;;;;;6241920;23;20435;-60
2023/11/27 09:25:08;;;;;;;6.70;5.33;;;3.40;99.90;;;;;;6241691;23;20498;-61
2023/11/27 09:27:35;;;;;;;4.63;3.30;;;3.40;99.90;;;;;;6242021;23;20392;-60
2023/11/27 09:30:03;;;;;;;8.37;5.17;;;3.50;99.90;;;;;;6241726;23;20426;-60
2023/11/27 09:32:29;;;;;;;7.43;4.13;;;3.50;99.90;;;;;;6242385;23;20408;-59
2023/11/27 09:34:58;;;;;;;5.07;4.17;;;3.40;99.90;;;;;;6242336;23;20472;-61
2023/11/27 09:37:25;;;;;;;5.63;3.77;;;3.40;99.90;;;;;;6241821;23;20396;-57
2023/11/27 09:39:53;;;;;;;5.70;3.77;;;3.50;99.90;;;;;;6242267;23;20495;-59
2023/11/27 09:42:20;;;;;;;5.57;4.30;;;3.50;99.90;;;;;;6242266;23;20408;-60
2023/11/27 09:44:47;;;;;;;7.07;4.83;;;3.50;99.90;;;;;;6241887;23;20404;-58
2023/11/27 09:47:15;;;;;;;8.80;3.20;;;3.60;99.90;;;;;;6242482;23;20426;-60
2023/11/27 09:49:47;;;;;;;5.50;4.47;;;3.50;99.90;;;;;;6242005;23;20424;-59
2023/11/27 09:52:19;;;;;;;17.60;4.93;;;3.70;99.90;;;;;;6242276;23;20415;-61
2023/11/27 09:54:52;;;;;;;6.80;4.37;;;3.80;99.90;;;;;;6241821;23;20474;-61
2023/11/27 09:57:18;;;;;;;10.93;5.03;;;3.90;99.90;;;;;;6242686;23;20388;-59
2023/11/27 09:59:45;;;;;;;7.27;3.90;;;3.90;99.90;;;;;;6241951;23;20482;-60
2023/11/27 10:02:12;;;;;;;5.87;4.87;;;4.00;99.90;;;;;;6242633;23;20411;-60
2023/11/27 10:04:42;;;;;;;10.00;4.57;;;4.00;99.90;;;;;;6241900;23;20420;-60
2023/11/27 10:07:09;;;;;;;9.00;5.03;;;4.10;99.90;;;;;;6242895;23;20415;-60
2023/11/27 10:09:37;;;;;;;8.53;3.43;;;4.10;99.90;;;;;;6242303;23;20499;-61
2023/11/27 10:12:06;;;;;;;12.00;5.03;;;4.10;99.90;;;;;;6242506;23;20392;-60
2023/11/27 10:14:33;;;;;;;6.43;4.70;;;4.10;99.90;;;;;;6242222;23;20444;-60
2023/11/27 10:17:01;;;;;;;8.63;4.30;;;4.20;99.90;;;;;;6241931;23;20419;-56
2023/11/27 10:19:28;;;;;;;7.77;4.20;;;4.20;99.90;;;;;;6241571;23;20475;-59
2023/11/27 10:21:56;;;;;;;8.20;4.83;;;4.20;99.90;;;;;;6242258;23;20408;-60
2023/11/27 10:24:23;;;;;;;7.23;4.70;;;4.20;99.90;;;;;;6241981;23;20408;-56
2023/11/27 10:26:51;;;;;;;12.40;5.87;;;4.10;99.90;;;;;;6242195;23;20419;-60
2023/11/27 10:29:26;;;;;;;9.13;5.80;;;4.20;99.90;;;;;;6241917;23;20397;-59
2023/11/27 10:31:55;;;;;;;15.30;5.93;;;4.10;99.90;;;;;;6241722;23;20419;-60
2023/11/27 10:34:22;;;;;;;12.60;5.77;;;4.10;99.90;;;;;;6242455;23;20436;-59
2023/11/27 10:36:56;;;;;;;8.90;5.47;;;4.20;99.90;;;;;;6242828;23;20879;-59
2023/11/27 10:39:25;;;;;;;7.63;4.63;;;4.20;99.90;;;;;;6235423;23;20395;-60
2023/11/27 10:41:55;;;;;;;11.03;5.53;;;4.30;99.90;;;;;;6218100;23;20486;-62
2023/11/27 10:44:24;;;;;;;14.23;7.33;;;4.30;99.90;;;;;;6217504;23;20385;-61
2023/11/27 10:46:54;;;;;;;11.60;6.67;;;4.40;99.90;;;;;;6217780;23;20404;-61
2023/11/27 10:49:24;;;;;;;14.43;5.33;;;4.50;99.90;;;;;;6217892;23;20458;-62
2023/11/27 10:51:53;;;;;;;16.60;6.40;;;4.60;99.90;;;;;;6217387;23;20412;-62
2023/11/27 10:54:22;;;;;;;17.00;6.97;;;4.70;99.90;;;;;;6217557;23;20510;-62
2023/11/27 10:56:51;;;;;;;10.67;6.47;;;4.70;99.90;;;;;;6217398;23;20400;-61
2023/11/27 10:59:22;;;;;;;11.83;6.87;;;4.80;99.90;;;;;;6217661;23;20523;-63
2023/11/27 11:01:54;;;;;;;11.93;7.90;;;4.70;99.90;;;;;;6217399;23;20428;-63
2023/11/27 11:04:26;;;;;;;17.83;6.90;;;4.70;99.90;;;;;;6217488;23;20427;-62
2023/11/27 11:06:56;;;;;;;14.40;7.10;;;4.70;99.90;;;;;;6217370;23;20672;-61
2023/11/27 11:09:25;;;;;;;10.97;6.60;;;4.80;99.90;;;;;;6218198;23;20455;-63
2023/11/27 11:11:55;;;;;;;18.00;8.60;;;4.80;99.90;;;;;;6217810;23;20415;-62
2023/11/27 11:14:26;;;;;;;16.50;8.40;;;4.80;99.90;;;;;;6217545;23;20471;-63
2023/11/27 11:17:07;;;;;;;12.63;7.77;;;4.80;99.90;;;;;;6217708;23;20408;-63
2023/11/27 11:19:49;;;;;;;12.80;7.30;;;4.80;99.90;;;;;;6217269;23;20423;-62
2023/11/27 11:22:30;;;;;;;13.40;7.50;;;4.80;99.90;;;;;;6217700;23;20396;-62
2023/11/27 11:25:08;;;;;;;11.80;6.67;;;4.60;99.90;;;;;;6217996;23;20439;-62
2023/11/27 11:27:42;;;;;;;14.30;8.50;;;4.60;99.90;;;;;;6217663;23;20388;-60
2023/11/27 11:30:13;;;;;;;15.37;6.37;;;4.60;99.90;;;;;;6217569;23;20461;-62
2023/11/27 11:32:40;;;;;;;9.90;6.60;;;4.60;99.90;;;;;;6217325;23;20392;-63
2023/11/27 11:35:11;;;;;;;13.47;6.47;;;4.50;99.90;;;;;;6217172;23;20948;-63
2023/11/27 11:37:46;;;;;;;9.20;6.53;;;4.50;99.90;;;;;;6217205;23;20527;-60
2023/11/27 11:40:14;;;;;;;10.00;6.10;;;4.50;99.90;;;;;;6217508;23;20423;-62
2023/11/27 11:42:44;;;;;;;14.40;5.67;;;4.60;99.90;;;;;;6219525;23;20414;-59
2023/11/27 11:45:18;;;;;;;13.40;6.50;;;4.60;99.90;;;;;;6219183;23;20435;-60
2023/11/27 11:47:51;;;;;;;11.53;6.77;;;4.60;99.90;;;;;;6220564;23;20392;-62
2023/11/27 11:50:28;;;;;;;10.30;6.27;;;4.60;99.90;;;;;;6219670;23;20510;-64
2023/11/27 11:52:55;;;;;;;8.10;5.70;;;4.60;99.90;;;;;;6219810;23;20875;-63
2023/11/27 11:55:26;;;;;;;9.67;5.30;;;4.60;99.90;;;;;;6219248;23;20455;-61
2023/11/27 11:57:55;;;;;;;8.67;5.23;;;4.50;99.90;;;;;;6219363;23;20843;-62
2023/11/27 12:00:28;;;;;;;8.73;5.73;;;4.50;99.90;;;;;;6219154;23;20506;-64
2023/11/27 12:02:59;;;;;;;9.17;6.07;;;4.50;99.90;;;;;;6219389;23;20404;-63
2023/11/27 12:05:27;;;;;;;11.33;5.93;;;4.50;99.90;;;;;;6218969;23;20395;-60
2023/11/27 12:07:56;;;;;;;14.20;6.93;;;4.50;99.90;;;;;;6219324;23;20420;-64
2023/11/27 12:10:30;;;;;;;9.40;6.17;;;4.40;99.90;;;;;;6219307;23;20431;-62
2023/11/27 12:12:59;;;;;;;11.23;5.33;;;4.30;99.90;;;;;;6219385;23;20428;-62
2023/11/27 12:15:28;;;;;;;9.67;6.03;;;4.30;99.90;;;;;;6243985;23;20435;-58
2023/11/27 12:17:56;;;;;;;8.83;5.70;;;4.30;99.90;;;;;;6244929;23;20898;-59
2023/11/27 12:20:23;;;;;;;11.10;4.80;;;4.30;99.90;;;;;;6244582;23;20411;-60
2023/11/27 12:22:51;;;;;;;9.97;6.20;;;4.20;99.90;;;;;;6244572;23;20439;-58
2023/11/27 12:25:19;;;;;;;10.00;5.63;;;4.10;99.90;;;;;;6244279;23;20387;-62
2023/11/27 12:27:47;;;;;;;6.87;4.70;;;4.10;99.90;;;;;;6243400;23;20411;-60
2023/11/27 12:30:20;;;;;;;13.63;6.40;;;4.10;99.90;;;;;;6243026;23;20435;-61
2023/11/27 12:32:51;;;;;;;10.23;6.10;;;4.00;99.90;;;;;;6242895;23;20419;-61
2023/11/27 12:35:18;;;;;;;7.57;4.70;;;4.00;99.90;;;;;;6242618;23;20454;-61
2023/11/27 12:37:47;;;;;;;10.30;6.17;;;4.00;99.90;;;;;;6242487;23;20412;-62
2023/11/27 12:40:18;;;;;;;4.80;4.27;;;4.30;99.90;;;;;;6242063;23;20431;-57
2023/11/27 12:42:46;;;;;;;10.10;5.50;;;3.80;99.90;;;;;;6243025;23;20381;-61
2023/11/27 12:45:16;;;;;;;10.10;6.23;;;3.80;99.90;;;;;;6242395;23;20420;-61
2023/11/27 12:47:50;;;;;;;7.97;6.27;;;3.80;99.90;;;;;;6242261;23;20385;-61
2023/11/27 12:50:23;;;;;;;7.63;5.80;;;3.80;99.90;;;;;;6242502;23;20384;-61
2023/11/27 12:52:50;;;;;;;9.70;5.70;;;3.80;99.90;;;;;;6242771;23;20384;-60
2023/11/27 12:55:17;;;;;;;8.37;4.90;;;3.80;99.90;;;;;;6243250;23;20440;-59
2023/11/27 12:57:45;;;;;;;11.23;6.13;;;3.80;99.90;;;;;;6242153;23;20411;-58